createdAt,value
2017-12-30T00:00:45.190Z,96603.44
2017-12-30T00:01:50.266Z,96597.75
2017-12-30T00:02:55.264Z,96595.23
2017-12-30T00:04:00.297Z,96588.05
2017-12-30T00:05:05.675Z,96598.45
2017-12-30T00:06:10.844Z,96595.17
2017-12-30T00:07:15.849Z,96607.30
2017-12-30T00:08:20.817Z,96616.03
2017-12-30T00:09:25.775Z,96604.66
2017-12-30T00:10:30.971Z,96611.08
2017-12-30T00:11:36.190Z,96608.84
2017-12-30T00:12:41.075Z,96606.89
2017-12-30T00:13:46.464Z,96614.53
2017-12-30T00:14:51.282Z,96608.98
2017-12-30T00:15:56.513Z,96615.24
2017-12-30T00:17:02.138Z,96606.10
2017-12-30T00:18:07.077Z,96610.22
2017-12-30T00:19:12.111Z,96613.37
2017-12-30T00:20:17.200Z,96613.17
2017-12-30T00:21:22.187Z,96623.52
2017-12-30T00:22:27.304Z,96631.01
2017-12-30T00:23:33.505Z,96624.92
2017-12-30T00:24:38.531Z,96620.60
2017-12-30T00:25:43.499Z,96619.89
2017-12-30T00:26:48.528Z,96625.39
2017-12-30T00:27:53.513Z,96627.50
2017-12-30T00:28:58.978Z,96628.59
2017-12-30T00:30:04.509Z,96633.42
2017-12-30T00:31:09.448Z,96635.77
2017-12-30T00:32:14.384Z,96637.34
2017-12-30T00:33:19.374Z,96641.13
2017-12-30T00:34:24.330Z,96639.59
2017-12-30T00:35:29.334Z,96634.59
2017-12-30T00:36:34.858Z,96641.32
2017-12-30T00:37:39.907Z,96645.05
2017-12-30T00:38:44.936Z,96660.11
2017-12-30T00:39:49.950Z,96657.40
2017-12-30T00:40:55.014Z,96643.77
2017-12-30T00:42:00.037Z,96635.66
2017-12-30T00:43:05.433Z,96630.17
2017-12-30T00:44:10.328Z,96623.21
2017-12-30T00:45:15.238Z,96625.98
2017-12-30T00:46:20.153Z,96631.41
2017-12-30T00:47:25.005Z,96634.63
2017-12-30T00:48:30.615Z,96636.57
2017-12-30T00:49:35.835Z,96631.48
2017-12-30T00:50:40.712Z,96640.13
2017-12-30T00:51:45.631Z,96644.61
2017-12-30T00:52:50.444Z,96650.03
2017-12-30T00:53:55.444Z,96648.80
2017-12-30T00:55:00.519Z,96650.47
2017-12-30T00:56:05.879Z,96654.09
2017-12-30T00:57:10.807Z,96659.27
2017-12-30T00:58:15.713Z,96656.86
2017-12-30T00:59:20.567Z,96657.80
2017-12-30T01:00:25.470Z,96658.11
2017-12-30T01:01:30.345Z,96660.38
2017-12-30T01:02:35.666Z,96658.30
2017-12-30T01:03:40.600Z,96662.42
2017-12-30T01:04:45.605Z,96653.42
2017-12-30T01:05:50.600Z,96662.13
2017-12-30T01:06:56.378Z,96653.75
2017-12-30T01:08:01.479Z,96654.59
2017-12-30T01:09:06.996Z,96650.91
2017-12-30T01:10:12.021Z,96654.59
2017-12-30T01:11:17.280Z,96657.47
2017-12-30T01:12:23.109Z,96656.33
2017-12-30T01:13:28.095Z,96653.22
2017-12-30T01:14:34.044Z,96654.98
2017-12-30T01:15:39.378Z,96660.22
2017-12-30T01:16:45.363Z,96655.93
2017-12-30T01:17:51.006Z,96650.33
2017-12-30T01:18:55.820Z,96650.63
2017-12-30T01:20:00.616Z,96655.12
2017-12-30T01:21:05.409Z,96659.64
2017-12-30T01:22:11.517Z,96658.90
2017-12-30T01:23:16.544Z,96656.59
2017-12-30T01:24:21.686Z,96652.40
2017-12-30T01:25:26.657Z,96650.58
2017-12-30T01:26:31.580Z,96654.59
2017-12-30T01:27:36.551Z,96654.16
2017-12-30T01:28:41.893Z,96663.16
2017-12-30T01:29:47.032Z,96665.16
2017-12-30T01:30:51.906Z,96670.45
2017-12-30T01:31:56.789Z,96670.81
2017-12-30T01:33:01.739Z,96666.12
2017-12-30T01:34:06.627Z,96665.39
2017-12-30T01:35:12.046Z,96664.15
2017-12-30T01:36:17.030Z,96667.87
2017-12-30T01:37:21.988Z,96665.32
2017-12-30T01:38:26.953Z,96662.44
2017-12-30T01:39:32.316Z,96668.56
2017-12-30T01:40:37.194Z,96667.43
2017-12-30T01:41:42.593Z,96661.34
2017-12-30T01:42:48.334Z,96665.89
2017-12-30T01:43:53.225Z,96665.69
2017-12-30T01:44:58.114Z,96663.14
2017-12-30T01:46:03.679Z,96660.47
2017-12-30T01:47:08.683Z,96659.30
2017-12-30T01:48:14.012Z,96664.32
2017-12-30T01:49:19.101Z,96661.44
2017-12-30T01:50:24.105Z,96665.77
2017-12-30T01:51:29.129Z,96658.00
2017-12-30T01:52:33.977Z,96657.93
2017-12-30T01:53:38.780Z,96660.24
2017-12-30T01:54:43.993Z,96652.07
2017-12-30T01:55:48.809Z,96666.17
2017-12-30T01:56:53.832Z,96671.80
2017-12-30T01:57:58.837Z,96668.02
2017-12-30T01:59:03.727Z,96675.34
2017-12-30T02:00:08.665Z,96671.27
2017-12-30T02:01:14.045Z,96673.84
2017-12-30T02:02:19.033Z,96665.14
2017-12-30T02:03:23.905Z,96668.45
2017-12-30T02:04:29.482Z,96666.71
2017-12-30T02:05:34.441Z,96664.87
2017-12-30T02:06:39.289Z,96658.23
2017-12-30T02:07:44.368Z,96658.10
2017-12-30T02:08:49.214Z,96645.38
2017-12-30T02:09:54.033Z,96637.70
2017-12-30T02:10:58.839Z,96640.02
2017-12-30T02:12:03.679Z,96639.65
2017-12-30T02:13:08.367Z,96634.12
2017-12-30T02:14:13.654Z,96641.22
2017-12-30T02:15:18.363Z,96636.77
2017-12-30T02:16:23.289Z,96633.42
2017-12-30T02:17:28.582Z,96630.20
2017-12-30T02:18:33.601Z,96621.64
2017-12-30T02:19:38.532Z,96631.45
2017-12-30T02:20:43.822Z,96631.11
2017-12-30T02:21:48.783Z,96630.98
2017-12-30T02:22:53.790Z,96629.91
2017-12-30T02:23:58.790Z,96630.81
2017-12-30T02:25:03.724Z,96639.48
2017-12-30T02:26:08.694Z,96624.52
2017-12-30T02:27:13.975Z,96619.66
2017-12-30T02:28:19.157Z,96621.23
2017-12-30T02:29:24.145Z,96622.64
2017-12-30T02:30:29.176Z,96626.96
2017-12-30T02:31:34.274Z,96631.11
2017-12-30T02:32:39.288Z,96614.94
2017-12-30T02:33:44.547Z,96622.97
2017-12-30T02:34:49.582Z,96615.74
2017-12-30T02:35:54.588Z,96624.08
2017-12-30T02:36:59.525Z,96623.48
2017-12-30T02:38:04.510Z,96621.97
2017-12-30T02:39:10.077Z,96612.46
2017-12-30T02:40:15.429Z,96614.14
2017-12-30T02:41:21.086Z,96617.95
2017-12-30T02:42:26.054Z,96622.51
2017-12-30T02:43:31.056Z,96614.17
2017-12-30T02:44:35.974Z,96618.42
2017-12-30T02:45:40.920Z,96622.14
2017-12-30T02:46:46.255Z,96616.34
2017-12-30T02:47:51.237Z,96611.48
2017-12-30T02:48:56.984Z,96610.92
2017-12-30T02:50:02.075Z,96611.73
2017-12-30T02:51:07.026Z,96602.95
2017-12-30T02:52:12.681Z,96602.15
2017-12-30T02:53:18.095Z,96602.15
2017-12-30T02:54:23.149Z,96597.70
2017-12-30T02:55:28.134Z,96589.70
2017-12-30T02:56:33.142Z,96590.80
2017-12-30T02:57:38.137Z,96588.59
2017-12-30T02:58:43.009Z,96583.94
2017-12-30T02:59:48.830Z,96589.22
2017-12-30T03:00:53.764Z,96589.99
2017-12-30T03:01:58.732Z,96593.95
2017-12-30T03:03:03.624Z,96585.94
2017-12-30T03:04:08.608Z,96587.78
2017-12-30T03:05:13.554Z,96592.23
2017-12-30T03:06:18.765Z,96591.30
2017-12-30T03:07:23.743Z,96587.11
2017-12-30T03:08:28.778Z,96588.12
2017-12-30T03:09:33.797Z,96580.72
2017-12-30T03:10:38.834Z,96580.05
2017-12-30T03:11:43.821Z,96578.81
2017-12-30T03:12:49.281Z,96575.80
2017-12-30T03:13:54.255Z,96583.70
2017-12-30T03:14:59.265Z,96579.08
2017-12-30T03:16:04.262Z,96575.33
2017-12-30T03:17:09.290Z,96576.27
2017-12-30T03:18:14.044Z,96580.89
2017-12-30T03:19:19.127Z,96572.12
2017-12-30T03:20:23.831Z,96566.80
2017-12-30T03:21:28.607Z,96563.18
2017-12-30T03:22:33.421Z,96566.89
2017-12-30T03:23:38.188Z,96568.13
2017-12-30T03:24:42.951Z,96573.05
2017-12-30T03:25:47.731Z,96568.61
2017-12-30T03:26:52.482Z,96577.24
2017-12-30T03:27:57.382Z,96575.09
2017-12-30T03:29:02.257Z,96577.81
2017-12-30T03:30:07.141Z,96568.94
2017-12-30T03:31:11.915Z,96573.83
2017-12-30T03:32:17.108Z,96575.47
2017-12-30T03:33:21.884Z,96564.22
2017-12-30T03:34:26.694Z,96556.37
2017-12-30T03:35:31.489Z,96561.37
2017-12-30T03:36:36.217Z,96563.05
2017-12-30T03:37:40.974Z,96556.78
2017-12-30T03:38:46.135Z,96552.83
2017-12-30T03:39:51.035Z,96555.81
2017-12-30T03:40:55.974Z,96562.61
2017-12-30T03:42:00.692Z,96565.49
2017-12-30T03:43:05.406Z,96562.22
2017-12-30T03:44:10.134Z,96566.03
2017-12-30T03:45:15.382Z,96565.97
2017-12-30T03:46:20.340Z,96565.97
2017-12-30T03:47:25.076Z,96563.56
2017-12-30T03:48:29.814Z,96564.33
2017-12-30T03:49:34.460Z,96557.03
2017-12-30T03:50:39.720Z,96550.74
2017-12-30T03:51:44.959Z,96552.72
2017-12-30T03:52:51.094Z,96566.41
2017-12-30T03:53:55.953Z,96563.70
2017-12-30T03:55:00.785Z,96564.87
2017-12-30T03:56:05.778Z,96570.79
2017-12-30T03:57:11.032Z,96570.69
2017-12-30T03:58:16.317Z,96569.48
2017-12-30T03:59:21.370Z,96571.69
2017-12-30T04:00:26.385Z,96565.70
2017-12-30T04:01:31.364Z,96559.88
2017-12-30T04:02:36.336Z,96563.23
2017-12-30T04:03:41.173Z,96569.39
2017-12-30T04:04:46.354Z,96562.06
2017-12-30T04:05:51.341Z,96562.49
2017-12-30T04:06:56.804Z,96568.08
2017-12-30T04:08:01.658Z,96571.19
2017-12-30T04:09:06.543Z,96562.22
2017-12-30T04:10:11.427Z,96563.13
2017-12-30T04:11:16.692Z,96568.95
2017-12-30T04:12:21.666Z,96567.61
2017-12-30T04:13:26.707Z,96567.45
2017-12-30T04:14:31.714Z,96556.70
2017-12-30T04:15:36.740Z,96566.64
2017-12-30T04:16:42.750Z,96556.09
2017-12-30T04:17:48.087Z,96550.11
2017-12-30T04:18:53.030Z,96545.69
2017-12-30T04:19:57.928Z,96551.28
2017-12-30T04:21:02.825Z,96547.16
2017-12-30T04:22:07.824Z,96551.64
2017-12-30T04:23:13.755Z,96542.88
2017-12-30T04:24:19.174Z,96561.63
2017-12-30T04:25:24.230Z,96558.67
2017-12-30T04:26:29.244Z,96555.30
2017-12-30T04:27:34.098Z,96553.05
2017-12-30T04:28:38.936Z,96545.66
2017-12-30T04:29:43.871Z,96539.53
2017-12-30T04:30:49.292Z,96542.14
2017-12-30T04:31:54.846Z,96536.08
2017-12-30T04:32:59.798Z,96542.03
2017-12-30T04:34:05.196Z,96534.97
2017-12-30T04:35:11.107Z,96540.80
2017-12-30T04:36:16.007Z,96540.13
2017-12-30T04:37:21.446Z,96543.22
2017-12-30T04:38:26.291Z,96543.45
2017-12-30T04:39:31.184Z,96536.38
2017-12-30T04:40:36.131Z,96535.95
2017-12-30T04:41:41.013Z,96535.91
2017-12-30T04:42:45.917Z,96533.73
2017-12-30T04:43:51.298Z,96534.64
2017-12-30T04:44:56.225Z,96537.02
2017-12-30T04:46:01.131Z,96546.75
2017-12-30T04:47:06.098Z,96542.73
2017-12-30T04:48:12.832Z,96541.23
2017-12-30T04:49:17.734Z,96552.17
2017-12-30T04:50:23.114Z,96546.79
2017-12-30T04:51:28.596Z,96555.16
2017-12-30T04:52:33.493Z,96554.83
2017-12-30T04:53:38.539Z,96554.92
2017-12-30T04:54:43.484Z,96546.80
2017-12-30T04:55:48.527Z,96558.74
2017-12-30T04:56:54.958Z,96558.44
2017-12-30T04:57:59.993Z,96550.77
2017-12-30T04:59:04.947Z,96547.16
2017-12-30T05:00:09.900Z,96550.27
2017-12-30T05:01:15.592Z,96547.05
2017-12-30T05:02:20.531Z,96541.44
2017-12-30T05:03:25.938Z,96550.70
2017-12-30T05:04:31.457Z,96546.41
2017-12-30T05:05:36.443Z,96541.09
2017-12-30T05:06:41.364Z,96550.13
2017-12-30T05:07:46.305Z,96552.74
2017-12-30T05:08:51.244Z,96554.78
2017-12-30T05:09:56.552Z,96557.83
2017-12-30T05:11:01.585Z,96549.34
2017-12-30T05:12:07.366Z,96548.07
2017-12-30T05:13:12.306Z,96556.02
2017-12-30T05:14:17.365Z,96534.74
2017-12-30T05:15:22.358Z,96536.05
2017-12-30T05:16:27.642Z,96533.33
2017-12-30T05:17:32.633Z,96531.55
2017-12-30T05:18:37.595Z,96531.62
2017-12-30T05:19:42.605Z,96522.75
2017-12-30T05:20:47.556Z,96526.73
2017-12-30T05:21:52.596Z,96524.15
2017-12-30T05:22:59.229Z,96528.30
2017-12-30T05:24:04.263Z,96531.52
2017-12-30T05:25:09.338Z,96533.05
2017-12-30T05:26:15.496Z,96523.97
2017-12-30T05:27:20.406Z,96530.90
2017-12-30T05:28:25.296Z,96529.59
2017-12-30T05:29:30.499Z,96524.13
2017-12-30T05:30:35.422Z,96528.42
2017-12-30T05:31:40.229Z,96521.78
2017-12-30T05:32:45.195Z,96514.75
2017-12-30T05:33:50.334Z,96510.48
2017-12-30T05:34:55.220Z,96517.42
2017-12-30T05:36:00.478Z,96509.91
2017-12-30T05:37:05.354Z,96512.61
2017-12-30T05:38:10.111Z,96508.09
2017-12-30T05:39:14.885Z,96503.14
2017-12-30T05:40:19.649Z,96508.45
2017-12-30T05:41:25.258Z,96513.97
2017-12-30T05:42:30.584Z,96506.45
2017-12-30T05:43:35.402Z,96503.83
2017-12-30T05:44:40.155Z,96504.38
2017-12-30T05:45:44.917Z,96505.47
2017-12-30T05:46:49.796Z,96507.98
2017-12-30T05:47:54.845Z,96504.63
2017-12-30T05:48:59.685Z,96501.64
2017-12-30T05:50:04.484Z,96503.28
2017-12-30T05:51:10.344Z,96498.62
2017-12-30T05:52:15.251Z,96492.09
2017-12-30T05:53:20.233Z,96505.55
2017-12-30T05:54:25.633Z,96490.70
2017-12-30T05:55:31.419Z,96486.47
2017-12-30T05:56:37.164Z,96496.17
2017-12-30T05:57:42.200Z,96492.41
2017-12-30T05:58:47.174Z,96488.11
2017-12-30T05:59:52.163Z,96499.74
2017-12-30T06:00:57.646Z,96489.50
2017-12-30T06:02:02.604Z,96486.47
2017-12-30T06:03:07.616Z,96482.68
2017-12-30T06:04:12.686Z,96493.62
2017-12-30T06:05:17.689Z,96498.50
2017-12-30T06:06:22.747Z,96509.03
2017-12-30T06:07:28.241Z,96501.74
2017-12-30T06:08:33.299Z,96497.41
2017-12-30T06:09:38.279Z,96497.08
2017-12-30T06:10:43.263Z,96507.19
2017-12-30T06:11:48.326Z,96505.79
2017-12-30T06:12:53.302Z,96507.80
2017-12-30T06:13:58.793Z,96502.83
2017-12-30T06:15:03.879Z,96508.64
2017-12-30T06:16:09.024Z,96503.83
2017-12-30T06:17:14.008Z,96509.70
2017-12-30T06:18:19.002Z,96513.53
2017-12-30T06:19:23.959Z,96512.66
2017-12-30T06:20:29.352Z,96508.17
2017-12-30T06:21:34.389Z,96510.43
2017-12-30T06:22:39.545Z,96518.86
2017-12-30T06:23:44.451Z,96516.45
2017-12-30T06:24:49.336Z,96509.12
2017-12-30T06:25:54.393Z,96520.02
2017-12-30T06:26:59.921Z,96517.50
2017-12-30T06:28:04.890Z,96519.55
2017-12-30T06:29:09.888Z,96519.95
2017-12-30T06:30:16.525Z,96515.75
2017-12-30T06:31:22.714Z,96513.49
2017-12-30T06:32:27.563Z,96501.24
2017-12-30T06:33:32.730Z,96493.47
2017-12-30T06:34:37.664Z,96501.86
2017-12-30T06:35:42.626Z,96495.59
2017-12-30T06:36:47.603Z,96493.22
2017-12-30T06:37:52.590Z,96502.84
2017-12-30T06:38:57.642Z,96497.34
2017-12-30T06:40:02.994Z,96482.06
2017-12-30T06:41:09.093Z,96479.29
2017-12-30T06:42:14.066Z,96476.41
2017-12-30T06:43:19.078Z,96467.19
2017-12-30T06:44:24.136Z,96466.89
2017-12-30T06:45:29.173Z,96464.78
2017-12-30T06:46:35.827Z,96462.38
2017-12-30T06:47:40.900Z,96462.97
2017-12-30T06:48:45.895Z,96467.23
2017-12-30T06:49:50.884Z,96465.26
2017-12-30T06:50:55.948Z,96461.21
2017-12-30T06:52:00.932Z,96460.16
2017-12-30T06:53:06.384Z,96471.37
2017-12-30T06:54:11.386Z,96455.09
2017-12-30T06:55:16.377Z,96446.02
2017-12-30T06:56:22.097Z,96440.08
2017-12-30T06:57:27.090Z,96447.44
2017-12-30T06:58:32.212Z,96448.34
2017-12-30T06:59:37.696Z,96445.91
2017-12-30T07:00:42.664Z,96439.48
2017-12-30T07:01:47.654Z,96433.15
2017-12-30T07:02:52.579Z,96428.16
2017-12-30T07:03:57.838Z,96427.03
2017-12-30T07:05:02.838Z,96428.73
2017-12-30T07:06:08.253Z,96430.02
2017-12-30T07:07:13.269Z,96424.40
2017-12-30T07:08:18.267Z,96427.45
2017-12-30T07:09:23.456Z,96412.23
2017-12-30T07:10:28.570Z,96413.14
2017-12-30T07:11:33.620Z,96403.30
2017-12-30T07:12:39.057Z,96394.96
2017-12-30T07:13:44.099Z,96401.27
2017-12-30T07:14:49.104Z,96389.45
2017-12-30T07:15:54.122Z,96381.63
2017-12-30T07:16:59.891Z,96375.31
2017-12-30T07:18:04.886Z,96375.86
2017-12-30T07:19:10.294Z,96374.83
2017-12-30T07:20:15.418Z,96379.81
2017-12-30T07:21:20.442Z,96379.09
2017-12-30T07:22:25.376Z,96392.30
2017-12-30T07:23:30.317Z,96379.86
2017-12-30T07:24:35.362Z,96383.56
2017-12-30T07:25:40.776Z,96378.69
2017-12-30T07:26:45.715Z,96370.06
2017-12-30T07:27:50.588Z,96360.22
2017-12-30T07:28:55.501Z,96346.53
2017-12-30T07:30:00.376Z,96342.46
2017-12-30T07:31:05.322Z,96343.45
2017-12-30T07:32:12.305Z,96336.42
2017-12-30T07:33:17.253Z,96333.03
2017-12-30T07:34:22.214Z,96333.51
2017-12-30T07:35:27.083Z,96339.44
2017-12-30T07:36:31.923Z,96338.03
2017-12-30T07:37:37.012Z,96328.23
2017-12-30T07:38:42.353Z,96323.75
2017-12-30T07:39:47.733Z,96315.74
2017-12-30T07:40:52.654Z,96320.55
2017-12-30T07:41:57.645Z,96327.69
2017-12-30T07:43:02.644Z,96331.04
2017-12-30T07:44:07.590Z,96322.48
2017-12-30T07:45:13.832Z,96319.50
2017-12-30T07:46:18.843Z,96317.64
2017-12-30T07:47:23.664Z,96320.33
2017-12-30T07:48:28.910Z,96316.91
2017-12-30T07:49:33.926Z,96305.73
2017-12-30T07:50:38.995Z,96314.17
2017-12-30T07:51:44.491Z,96297.94
2017-12-30T07:52:49.454Z,96288.35
2017-12-30T07:53:54.439Z,96282.81
2017-12-30T07:54:59.370Z,96283.06
2017-12-30T07:56:04.269Z,96282.19
2017-12-30T07:57:09.350Z,96287.43
2017-12-30T07:58:15.386Z,96282.52
2017-12-30T07:59:20.298Z,96275.30
2017-12-30T08:00:25.178Z,96273.70
2017-12-30T08:01:30.143Z,96275.62
2017-12-30T08:02:35.118Z,96281.26
2017-12-30T08:03:40.637Z,96282.17
2017-12-30T08:04:45.999Z,96275.86
2017-12-30T08:05:50.882Z,96273.39
2017-12-30T08:06:55.796Z,96266.75
2017-12-30T08:08:00.702Z,96278.16
2017-12-30T08:09:06.650Z,96270.32
2017-12-30T08:10:12.174Z,96275.39
2017-12-30T08:11:17.546Z,96268.17
2017-12-30T08:12:22.426Z,96266.78
2017-12-30T08:13:27.328Z,96273.22
2017-12-30T08:14:32.286Z,96270.38
2017-12-30T08:15:37.620Z,96272.30
2017-12-30T08:16:43.002Z,96272.42
2017-12-30T08:17:47.922Z,96263.75
2017-12-30T08:18:52.877Z,96260.00
2017-12-30T08:19:57.896Z,96260.84
2017-12-30T08:21:02.753Z,96250.25
2017-12-30T08:22:08.331Z,96258.13
2017-12-30T08:23:13.805Z,96253.28
2017-12-30T08:24:18.798Z,96256.31
2017-12-30T08:25:23.761Z,96239.22
2017-12-30T08:26:28.696Z,96245.25
2017-12-30T08:27:33.829Z,96233.81
2017-12-30T08:28:38.750Z,96223.22
2017-12-30T08:29:44.317Z,96222.63
2017-12-30T08:30:51.396Z,96211.83
2017-12-30T08:31:56.615Z,96211.08
2017-12-30T08:33:01.699Z,96206.64
2017-12-30T08:34:06.701Z,96202.16
2017-12-30T08:35:11.775Z,96202.33
2017-12-30T08:36:17.225Z,96193.53
2017-12-30T08:37:22.580Z,96189.81
2017-12-30T08:38:27.629Z,96191.26
2017-12-30T08:39:32.656Z,96194.29
2017-12-30T08:40:37.665Z,96184.90
2017-12-30T08:41:42.656Z,96191.02
2017-12-30T08:42:49.070Z,96194.09
2017-12-30T08:43:54.144Z,96186.62
2017-12-30T08:44:59.163Z,96184.91
2017-12-30T08:46:04.116Z,96177.59
2017-12-30T08:47:09.095Z,96173.43
2017-12-30T08:48:14.318Z,96170.67
2017-12-30T08:49:19.847Z,96185.38
2017-12-30T08:50:25.575Z,96171.07
2017-12-30T08:51:30.671Z,96166.35
2017-12-30T08:52:35.704Z,96177.86
2017-12-30T08:53:40.865Z,96169.30
2017-12-30T08:54:45.851Z,96177.53
2017-12-30T08:55:51.372Z,96174.53
2017-12-30T08:56:56.333Z,96170.09
2017-12-30T08:58:01.306Z,96162.73
2017-12-30T08:59:06.201Z,96169.66
2017-12-30T09:00:11.278Z,96162.70
2017-12-30T09:01:16.218Z,96156.41
2017-12-30T09:02:22.261Z,96147.46
2017-12-30T09:03:27.661Z,96141.66
2017-12-30T09:04:32.559Z,96140.47
2017-12-30T09:05:37.572Z,96132.35
2017-12-30T09:06:42.790Z,96127.95
2017-12-30T09:07:47.836Z,96122.28
2017-12-30T09:08:53.183Z,96118.17
2017-12-30T09:09:58.138Z,96117.16
2017-12-30T09:11:03.392Z,96120.08
2017-12-30T09:12:08.324Z,96118.67
2017-12-30T09:13:13.238Z,96114.24
2017-12-30T09:14:18.211Z,96117.03
2017-12-30T09:15:23.615Z,96107.60
2017-12-30T09:16:29.246Z,96113.95
2017-12-30T09:17:34.320Z,96112.80
2017-12-30T09:18:39.237Z,96108.28
2017-12-30T09:19:44.136Z,96106.08
2017-12-30T09:20:49.050Z,96116.70
2017-12-30T09:21:54.394Z,96111.98
2017-12-30T09:22:59.258Z,96111.23
2017-12-30T09:24:04.154Z,96121.10
2017-12-30T09:25:09.115Z,96129.13
2017-12-30T09:26:14.037Z,96128.37
2017-12-30T09:27:18.942Z,96130.81
2017-12-30T09:28:23.811Z,96111.56
2017-12-30T09:29:28.695Z,96127.28
2017-12-30T09:30:33.578Z,96138.31
2017-12-30T09:31:38.411Z,96135.50
2017-12-30T09:32:43.294Z,96103.47
2017-12-30T09:33:48.527Z,96105.42
2017-12-30T09:34:54.022Z,96100.59
2017-12-30T09:35:58.846Z,96109.39
2017-12-30T09:37:03.655Z,96117.78
2017-12-30T09:38:08.436Z,96104.89
2017-12-30T09:39:13.244Z,96114.42
2017-12-30T09:40:18.797Z,96108.66
2017-12-30T09:41:23.663Z,96103.11
2017-12-30T09:42:28.558Z,96098.91
2017-12-30T09:43:33.525Z,96101.74
2017-12-30T09:44:38.525Z,96115.11
2017-12-30T09:46:46.056Z,96103.42
2017-12-30T09:47:51.025Z,96110.97
2017-12-30T09:48:56.182Z,96108.41
2017-12-30T09:50:01.082Z,96109.02
2017-12-30T09:51:06.024Z,96105.42
2017-12-30T09:52:11.041Z,96102.38
2017-12-30T09:53:16.532Z,96102.45
2017-12-30T09:54:21.436Z,96089.75
2017-12-30T09:55:26.303Z,96100.42
2017-12-30T09:56:31.211Z,96090.22
2017-12-30T09:57:36.845Z,96082.16
2017-12-30T09:58:41.951Z,96092.48
2017-12-30T09:59:47.569Z,96089.27
2017-12-30T10:00:52.476Z,96092.72
2017-12-30T10:01:57.380Z,96094.45
2017-12-30T10:03:02.296Z,96094.23
2017-12-30T10:04:07.309Z,96094.41
2017-12-30T10:05:12.320Z,96094.02
2017-12-30T10:06:17.783Z,96089.84
2017-12-30T10:07:23.455Z,96094.69
2017-12-30T10:08:28.544Z,96087.98
2017-12-30T10:09:33.722Z,96080.86
2017-12-30T10:10:38.795Z,96072.38
2017-12-30T10:11:43.921Z,96085.16
2017-12-30T10:12:49.253Z,96070.97
2017-12-30T10:13:54.394Z,96074.34
2017-12-30T10:14:59.374Z,96071.00
2017-12-30T10:16:04.401Z,96077.67
2017-12-30T10:17:09.339Z,96075.09
2017-12-30T10:18:14.241Z,96069.32
2017-12-30T10:19:19.578Z,96071.94
2017-12-30T10:20:24.514Z,96069.50
2017-12-30T10:21:29.446Z,96080.85
2017-12-30T10:22:34.395Z,96075.87
2017-12-30T10:23:39.316Z,96073.80
2017-12-30T10:24:44.242Z,96072.73
2017-12-30T10:25:49.618Z,96066.92
2017-12-30T10:26:54.553Z,96064.92
2017-12-30T10:27:59.479Z,96056.41
2017-12-30T10:29:04.466Z,96055.34
2017-12-30T10:30:09.644Z,96058.92
2017-12-30T10:31:14.513Z,96058.03
2017-12-30T10:32:19.788Z,96056.00
2017-12-30T10:33:24.784Z,96060.08
2017-12-30T10:34:29.774Z,96060.08
2017-12-30T10:35:34.626Z,96053.77
2017-12-30T10:36:39.647Z,96053.67
2017-12-30T10:37:44.723Z,96059.97
2017-12-30T10:38:50.058Z,96073.39
2017-12-30T10:39:54.976Z,96054.30
2017-12-30T10:41:03.212Z,96051.81
2017-12-30T10:42:08.107Z,96056.12
2017-12-30T10:43:13.015Z,96046.75
2017-12-30T10:44:17.837Z,96045.77
2017-12-30T10:45:24.360Z,96044.57
2017-12-30T10:46:29.275Z,96046.09
2017-12-30T10:47:34.350Z,96054.52
2017-12-30T10:48:39.275Z,96053.50
2017-12-30T10:49:44.179Z,96041.59
2017-12-30T10:50:49.421Z,96041.69
2017-12-30T10:51:55.482Z,96042.75
2017-12-30T10:53:00.415Z,96034.22
2017-12-30T10:54:05.291Z,96029.65
2017-12-30T10:55:11.447Z,96037.84
2017-12-30T10:56:16.409Z,96031.14
2017-12-30T10:57:21.435Z,96030.88
2017-12-30T10:58:26.902Z,96015.78
2017-12-30T10:59:31.815Z,96012.83
2017-12-30T11:00:40.694Z,96017.45
2017-12-30T11:01:45.575Z,96012.16
2017-12-30T11:02:50.452Z,96016.06
2017-12-30T11:03:55.506Z,96015.34
2017-12-30T11:05:00.977Z,96016.33
2017-12-30T11:06:05.755Z,96019.12
2017-12-30T11:07:10.484Z,96015.66
2017-12-30T11:08:15.283Z,96008.23
2017-12-30T11:09:20.136Z,96015.73
2017-12-30T11:10:25.139Z,96012.71
2017-12-30T11:11:30.525Z,96015.90
2017-12-30T11:12:35.493Z,96004.85
2017-12-30T11:13:40.423Z,96006.40
2017-12-30T11:14:45.395Z,96010.84
2017-12-30T11:15:50.375Z,95994.09
2017-12-30T11:16:55.284Z,95997.61
2017-12-30T11:18:00.603Z,96008.75
2017-12-30T11:19:05.610Z,95999.31
2017-12-30T11:20:10.629Z,95999.86
2017-12-30T11:21:15.657Z,96005.27
2017-12-30T11:22:20.756Z,96002.20
2017-12-30T11:23:26.815Z,96002.66
2017-12-30T11:24:32.299Z,95995.48
2017-12-30T11:25:37.354Z,95999.67
2017-12-30T11:26:42.357Z,96011.61
2017-12-30T11:27:47.354Z,96006.63
2017-12-30T11:28:52.421Z,96014.09
2017-12-30T11:29:57.703Z,96024.75
2017-12-30T11:31:03.135Z,96034.44
2017-12-30T11:32:08.205Z,96012.58
2017-12-30T11:33:13.175Z,96016.41
2017-12-30T11:34:18.774Z,96018.66
2017-12-30T11:35:23.864Z,96016.36
2017-12-30T11:36:28.966Z,96024.55
2017-12-30T11:37:34.402Z,96022.20
2017-12-30T11:38:39.417Z,96024.00
2017-12-30T11:39:44.415Z,96021.95
2017-12-30T11:40:49.484Z,96021.16
2017-12-30T11:41:54.479Z,96013.59
2017-12-30T11:42:59.664Z,96021.08
2017-12-30T11:44:05.152Z,96014.37
2017-12-30T11:45:10.116Z,96014.92
2017-12-30T11:46:15.046Z,96028.84
2017-12-30T11:47:20.002Z,96022.71
2017-12-30T11:48:26.554Z,96017.07
2017-12-30T11:49:31.510Z,96017.05
2017-12-30T11:50:36.892Z,96019.01
2017-12-30T11:51:41.981Z,96021.97
2017-12-30T11:52:46.956Z,96022.17
2017-12-30T11:53:51.961Z,96026.30
2017-12-30T11:54:56.950Z,96028.45
2017-12-30T11:56:03.071Z,96013.87
2017-12-30T11:57:08.331Z,96018.85
2017-12-30T11:58:13.306Z,96005.11
2017-12-30T11:59:18.249Z,96018.48
2017-12-30T12:00:23.162Z,96027.16
2017-12-30T12:01:28.103Z,96030.46
2017-12-30T12:02:33.025Z,96025.81
2017-12-30T12:03:38.313Z,96027.70
2017-12-30T12:04:43.421Z,96017.75
2017-12-30T12:05:48.356Z,96024.30
2017-12-30T12:06:53.832Z,96014.20
2017-12-30T12:07:58.756Z,96017.19
2017-12-30T12:09:03.866Z,96019.34
2017-12-30T12:10:09.279Z,96025.79
2017-12-30T12:11:14.877Z,96035.95
2017-12-30T12:12:20.202Z,96024.06
2017-12-30T12:13:25.186Z,96022.41
2017-12-30T12:14:30.646Z,95975.41
2017-12-30T12:15:35.927Z,96040.67
2017-12-30T12:16:41.437Z,96038.86
2017-12-30T12:17:46.476Z,96035.73
2017-12-30T12:18:51.645Z,96026.64
2017-12-30T12:19:58.464Z,96043.89
2017-12-30T12:21:03.528Z,96050.53
2017-12-30T12:22:08.558Z,96040.03
2017-12-30T12:23:13.893Z,96041.75
2017-12-30T12:24:18.944Z,96044.69
2017-12-30T12:25:23.963Z,96054.33
2017-12-30T12:26:28.975Z,96052.64
2017-12-30T12:27:34.035Z,96071.13
2017-12-30T12:28:39.036Z,96073.57
2017-12-30T12:29:44.333Z,96072.62
2017-12-30T12:30:49.249Z,96063.78
2017-12-30T12:31:54.830Z,96071.66
2017-12-30T12:32:59.745Z,96063.70
2017-12-30T12:34:04.761Z,96060.72
2017-12-30T12:35:09.806Z,96064.13
2017-12-30T12:36:15.630Z,96057.53
2017-12-30T12:37:20.553Z,96064.69
2017-12-30T12:38:25.336Z,96058.69
2017-12-30T12:39:30.140Z,96073.89
2017-12-30T12:40:35.078Z,96056.53
2017-12-30T12:41:40.080Z,96053.80
2017-12-30T12:42:45.463Z,96049.69
2017-12-30T12:43:50.588Z,96060.98
2017-12-30T12:44:55.543Z,96053.25
2017-12-30T12:46:00.555Z,96059.81